createdAt,value
2023-05-16T00:00:58.422Z,23.59
2023-05-16T00:03:26.082Z,23.83
2023-05-16T00:05:53.206Z,24.08
2023-05-16T00:08:19.773Z,24.08
2023-05-16T00:10:46.272Z,23.85
2023-05-16T00:13:13.558Z,23.80
2023-05-16T00:15:40.162Z,23.91
2023-05-16T00:18:07.137Z,23.94
2023-05-16T00:20:34.681Z,24.03
2023-05-16T00:23:01.489Z,23.89
2023-05-16T00:25:28.719Z,24.29
2023-05-16T00:27:55.307Z,24.24
2023-05-16T00:30:22.703Z,23.82
2023-05-16T00:32:51.739Z,23.88
2023-05-16T00:35:18.283Z,23.84
2023-05-16T00:37:44.848Z,23.40
2023-05-16T00:40:11.639Z,23.41
2023-05-16T00:42:39.136Z,23.03
2023-05-16T00:45:06.915Z,22.86
2023-05-16T00:47:33.693Z,22.88
2023-05-16T00:50:00.723Z,23.28
2023-05-16T00:52:28.416Z,23.42
2023-05-16T00:54:55.045Z,22.84
2023-05-16T00:57:21.700Z,23.27
2023-05-16T00:59:48.637Z,23.13
2023-05-16T01:02:17.376Z,22.74
2023-05-16T01:04:46.101Z,22.89
2023-05-16T01:07:12.708Z,22.75
2023-05-16T01:09:39.424Z,22.25
2023-05-16T01:12:21.369Z,22.28
2023-05-16T01:15:08.489Z,22.01
2023-05-16T01:17:44.172Z,21.50
2023-05-16T01:20:28.209Z,21.90
2023-05-16T01:23:13.613Z,21.87
2023-05-16T01:25:58.116Z,21.94
2023-05-16T01:28:26.025Z,21.77
2023-05-16T01:30:52.655Z,21.52
2023-05-16T01:33:19.266Z,21.60
2023-05-16T01:36:21.151Z,21.90
2023-05-16T01:39:11.519Z,21.87
2023-05-16T01:41:43.966Z,21.61
2023-05-16T01:44:30.409Z,21.74
2023-05-16T01:47:01.597Z,21.80
2023-05-16T01:49:36.114Z,21.60
2023-05-16T01:52:09.876Z,21.50
2023-05-16T01:54:42.887Z,21.83
2023-05-16T01:57:10.383Z,21.82
2023-05-16T01:59:38.505Z,21.81
2023-05-16T02:02:05.465Z,22.39
2023-05-16T02:04:31.999Z,22.30
2023-05-16T02:07:00.529Z,22.45
2023-05-16T02:09:27.440Z,22.23
2023-05-16T02:11:54.313Z,22.27
2023-05-16T02:14:20.900Z,22.27
2023-05-16T02:16:48.492Z,22.70
2023-05-16T02:19:16.807Z,22.53
2023-05-16T02:21:43.449Z,22.66
2023-05-16T02:24:11.360Z,22.69
2023-05-16T02:26:37.951Z,22.84
2023-05-16T02:29:05.924Z,22.69
2023-05-16T02:31:34.842Z,22.76
2023-05-16T02:34:02.134Z,22.85
2023-05-16T02:36:29.055Z,22.91
2023-05-16T02:38:55.767Z,22.91
2023-05-16T02:41:22.962Z,22.88
2023-05-16T02:43:49.720Z,22.86
2023-05-16T02:46:30.808Z,23.54
2023-05-16T02:48:57.715Z,23.90
2023-05-16T02:51:26.375Z,23.84
2023-05-16T02:53:54.158Z,23.98
2023-05-16T02:56:21.877Z,23.60
2023-05-16T02:58:49.728Z,23.40
2023-05-16T03:01:17.252Z,23.07
2023-05-16T03:03:43.948Z,23.15
2023-05-16T03:06:10.775Z,23.03
2023-05-16T03:08:37.387Z,22.56
2023-05-16T03:11:04.211Z,22.66
2023-05-16T03:13:30.862Z,22.77
2023-05-16T03:15:58.941Z,22.67
2023-05-16T03:18:25.616Z,23.09
2023-05-16T03:20:55.073Z,23.03
2023-05-16T03:23:24.077Z,22.81
2023-05-16T03:25:50.918Z,23.03
2023-05-16T03:28:20.741Z,23.10
2023-05-16T03:30:47.343Z,23.01
2023-05-16T03:33:14.059Z,22.98
2023-05-16T03:35:40.935Z,23.11
2023-05-16T03:38:07.654Z,23.10
2023-05-16T03:40:34.269Z,22.21
2023-05-16T03:43:00.885Z,22.55
2023-05-16T03:45:27.593Z,22.99
2023-05-16T03:47:54.538Z,23.32
2023-05-16T03:50:21.161Z,23.07
2023-05-16T03:52:47.894Z,23.26
2023-05-16T03:55:15.197Z,23.25
2023-05-16T03:57:42.712Z,23.29
2023-05-16T04:00:12.536Z,23.31
2023-05-16T04:02:43.732Z,23.37
2023-05-16T04:05:11.553Z,23.59
2023-05-16T04:07:38.309Z,23.29
2023-05-16T04:10:05.888Z,23.13
2023-05-16T04:12:32.663Z,23.06
2023-05-16T04:14:59.431Z,22.89
2023-05-16T04:17:26.028Z,23.04
2023-05-16T04:19:52.687Z,23.38
2023-05-16T04:22:23.280Z,22.24
2023-05-16T04:24:50.115Z,22.45
2023-05-16T04:27:16.657Z,22.65
2023-05-16T04:29:44.289Z,22.72
2023-05-16T04:32:11.055Z,22.85
2023-05-16T04:34:39.642Z,22.93
2023-05-16T04:37:08.421Z,22.69
2023-05-16T04:39:36.535Z,22.99
2023-05-16T04:42:04.185Z,22.81
2023-05-16T04:44:30.998Z,22.30
2023-05-16T04:46:57.828Z,22.18
2023-05-16T04:49:24.459Z,22.57
2023-05-16T04:51:51.176Z,22.73
2023-05-16T04:54:17.733Z,22.77
2023-05-16T04:56:44.259Z,22.44
2023-05-16T04:59:10.901Z,22.48
2023-05-16T05:01:37.431Z,22.10
2023-05-16T05:04:04.188Z,22.21
2023-05-16T05:06:31.390Z,22.51
2023-05-16T05:08:58.136Z,22.53
2023-05-16T05:11:24.674Z,22.43
2023-05-16T05:13:52.944Z,22.15
2023-05-16T05:16:19.878Z,21.99
2023-05-16T05:18:46.636Z,22.03
2023-05-16T05:21:13.334Z,21.63
2023-05-16T05:23:40.190Z,22.03
2023-05-16T05:26:06.818Z,21.87
2023-05-16T05:28:33.635Z,21.84
2023-05-16T05:31:00.148Z,21.90
2023-05-16T05:33:30.335Z,22.17
2023-05-16T05:35:57.518Z,22.71
2023-05-16T05:38:24.051Z,22.41
2023-05-16T05:40:50.952Z,22.62
2023-05-16T05:43:17.502Z,22.67
2023-05-16T05:45:44.736Z,22.81
2023-05-16T05:48:12.573Z,22.87
2023-05-16T05:50:39.415Z,23.11
2023-05-16T05:53:05.983Z,23.25
2023-05-16T05:55:32.547Z,22.77
2023-05-16T05:57:59.173Z,22.91
2023-05-16T06:00:25.922Z,23.18
2023-05-16T06:02:52.738Z,23.02
2023-05-16T06:05:19.775Z,23.41
2023-05-16T06:07:46.330Z,23.03
2023-05-16T06:10:12.910Z,23.03
2023-05-16T06:12:39.408Z,22.82
2023-05-16T06:15:06.473Z,23.29
2023-05-16T06:17:33.003Z,23.42
2023-05-16T06:19:59.622Z,23.80
2023-05-16T06:22:26.191Z,23.63
2023-05-16T06:24:52.983Z,23.75
2023-05-16T06:27:19.494Z,24.05
2023-05-16T06:29:46.132Z,24.32
2023-05-16T06:32:13.477Z,24.28
2023-05-16T06:34:40.399Z,24.25
2023-05-16T06:37:06.925Z,24.00
2023-05-16T06:39:33.684Z,23.68
2023-05-16T06:42:00.788Z,24.18
2023-05-16T06:44:31.900Z,24.80
2023-05-16T06:46:58.770Z,24.60
2023-05-16T06:49:25.760Z,24.67
2023-05-16T06:51:52.298Z,25.06
2023-05-16T06:54:18.905Z,25.25
2023-05-16T06:56:45.754Z,24.82
2023-05-16T06:59:12.464Z,24.68
2023-05-16T07:01:39.257Z,25.02
2023-05-16T07:04:06.390Z,24.43
2023-05-16T07:06:33.471Z,24.72
2023-05-16T07:09:00.557Z,24.51
2023-05-16T07:11:27.123Z,24.48
2023-05-16T07:13:53.744Z,24.63
2023-05-16T07:16:20.554Z,24.64
2023-05-16T07:18:47.346Z,24.18
2023-05-16T07:21:14.094Z,24.49
2023-05-16T07:23:41.402Z,24.46
2023-05-16T07:26:08.093Z,24.00
2023-05-16T07:28:34.983Z,23.85
2023-05-16T07:31:01.688Z,24.19
2023-05-16T07:33:28.402Z,25.10
2023-05-16T07:36:07.949Z,25.17
2023-05-16T07:38:42.053Z,25.30
2023-05-16T07:41:08.657Z,24.86
2023-05-16T07:43:35.492Z,24.71
2023-05-16T07:46:03.062Z,24.70
2023-05-16T07:48:29.863Z,24.45
2023-05-16T07:50:56.598Z,24.69
2023-05-16T07:53:23.391Z,24.46
2023-05-16T07:55:53.273Z,24.86
2023-05-16T07:58:20.378Z,24.67
2023-05-16T08:00:47.041Z,24.64
2023-05-16T08:03:13.989Z,24.15
2023-05-16T08:05:40.773Z,24.49
2023-05-16T08:08:07.424Z,25.16
2023-05-16T08:10:34.105Z,25.00
2023-05-16T08:13:00.791Z,25.36
2023-05-16T08:15:28.715Z,25.15
2023-05-16T08:17:59.329Z,25.18
2023-05-16T08:20:26.388Z,25.32
2023-05-16T08:22:53.182Z,25.28
2023-05-16T08:25:20.451Z,24.97
2023-05-16T08:27:51.022Z,25.52
2023-05-16T08:30:17.793Z,25.00
2023-05-16T08:32:44.810Z,24.58
2023-05-16T08:35:12.889Z,24.74
2023-05-16T08:37:39.696Z,25.57
2023-05-16T08:40:09.464Z,25.63
2023-05-16T08:42:37.445Z,25.97
2023-05-16T08:45:05.758Z,25.73
2023-05-16T08:47:33.217Z,24.82
2023-05-16T08:50:02.787Z,25.06
2023-05-16T08:52:31.738Z,24.95
2023-05-16T08:55:10.691Z,25.19
2023-05-16T08:57:38.557Z,24.74
2023-05-16T09:00:12.398Z,24.72
2023-05-16T09:02:41.738Z,25.27
2023-05-16T09:05:15.885Z,25.88
2023-05-16T09:07:44.663Z,25.82
2023-05-16T09:10:12.658Z,25.75
2023-05-16T09:12:42.316Z,25.62
2023-05-16T09:15:12.459Z,25.24
2023-05-16T09:17:44.363Z,25.08
2023-05-16T09:20:18.599Z,25.04
2023-05-16T09:22:57.726Z,25.39
2023-05-16T09:27:58.824Z,25.53
2023-05-16T09:30:34.260Z,25.14
2023-05-16T09:33:01.883Z,24.98
2023-05-16T09:37:59.823Z,25.48
2023-05-16T09:40:27.880Z,25.79
2023-05-16T09:43:07.189Z,25.76
2023-05-16T09:45:39.686Z,26.01
2023-05-16T09:48:12.946Z,26.15
2023-05-16T09:50:40.271Z,25.85
2023-05-16T09:53:06.973Z,26.11
2023-05-16T09:55:34.071Z,26.59
2023-05-16T09:58:01.136Z,26.67
2023-05-16T10:00:32.997Z,26.34
2023-05-16T10:03:04.769Z,26.38
2023-05-16T10:05:33.788Z,27.10
2023-05-16T10:08:02.784Z,26.36
2023-05-16T10:10:30.079Z,27.45
2023-05-16T10:13:01.495Z,26.77
2023-05-16T10:15:30.229Z,26.98
2023-05-16T10:18:00.753Z,26.24
2023-05-16T10:20:28.129Z,26.04
2023-05-16T10:22:57.041Z,25.68
2023-05-16T10:25:45.410Z,26.29
2023-05-16T10:28:13.949Z,26.41
2023-05-16T10:30:44.148Z,25.08
2023-05-16T10:33:15.984Z,25.57
2023-05-16T10:35:44.284Z,25.69
2023-05-16T10:38:12.724Z,26.13
2023-05-16T10:40:40.664Z,25.99
2023-05-16T10:43:09.573Z,26.11
2023-05-16T10:45:42.335Z,26.20
2023-05-16T10:48:12.709Z,26.65
2023-05-16T10:50:44.607Z,26.41
2023-05-16T10:53:13.061Z,26.21
2023-05-16T10:55:40.914Z,26.18
2023-05-16T10:58:11.555Z,26.29
2023-05-16T11:00:41.274Z,26.95
2023-05-16T11:03:27.431Z,26.46
2023-05-16T11:05:59.927Z,26.71
2023-05-16T11:08:27.918Z,26.63
2023-05-16T11:11:33.274Z,26.38
2023-05-16T11:14:04.952Z,26.14
2023-05-16T11:16:35.210Z,25.98
2023-05-16T11:19:06.874Z,25.52
2023-05-16T11:22:11.816Z,25.85
2023-05-16T11:24:40.666Z,26.00
2023-05-16T11:27:11.527Z,26.10
2023-05-16T11:29:39.392Z,26.20
2023-05-16T11:32:07.284Z,26.33
2023-05-16T11:34:40.726Z,26.20
2023-05-16T11:37:11.614Z,26.14
2023-05-16T11:39:39.793Z,26.21
2023-05-16T11:42:07.772Z,26.61
2023-05-16T11:44:34.990Z,26.64
2023-05-16T11:47:04.534Z,26.62
2023-05-16T11:49:31.727Z,26.81
2023-05-16T11:51:58.462Z,26.85
2023-05-16T11:54:26.328Z,27.50
2023-05-16T11:56:53.709Z,26.93
2023-05-16T11:59:20.913Z,26.91
2023-05-16T12:01:49.176Z,27.04
2023-05-16T12:04:17.054Z,26.38
2023-05-16T12:06:44.940Z,26.48
2023-05-16T12:09:14.348Z,26.75
2023-05-16T12:11:44.113Z,27.12
2023-05-16T12:14:13.823Z,27.11
2023-05-16T12:16:46.315Z,27.55
2023-05-16T12:19:14.184Z,27.68
2023-05-16T12:21:40.900Z,27.07
2023-05-16T12:24:11.571Z,27.51
2023-05-16T12:26:40.619Z,27.29
2023-05-16T12:29:08.097Z,26.65
2023-05-16T12:31:41.645Z,26.86
2023-05-16T12:34:16.283Z,26.88
2023-05-16T12:36:43.389Z,26.41
2023-05-16T12:39:12.900Z,27.19
2023-05-16T12:41:43.251Z,27.04
2023-05-16T12:44:17.692Z,26.71
2023-05-16T12:46:50.242Z,27.06
2023-05-16T12:49:21.569Z,27.03
2023-05-16T12:51:50.006Z,27.36
2023-05-16T12:54:16.840Z,27.49
2023-05-16T12:56:44.087Z,27.69
2023-05-16T12:59:12.291Z,27.87
2023-05-16T13:01:40.525Z,27.34
2023-05-16T13:04:08.355Z,27.50
2023-05-16T13:06:55.635Z,27.27
2023-05-16T13:09:23.334Z,27.06
2023-05-16T13:11:50.711Z,26.70
2023-05-16T13:14:17.907Z,26.50
2023-05-16T13:16:44.914Z,26.65
2023-05-16T13:19:11.799Z,27.24
2023-05-16T13:21:38.471Z,26.81
2023-05-16T13:24:05.528Z,26.62
2023-05-16T13:26:32.089Z,27.48
2023-05-16T13:28:58.671Z,27.09
2023-05-16T13:31:25.413Z,27.33
2023-05-16T13:33:52.146Z,27.86
2023-05-16T13:36:18.721Z,28.33
2023-05-16T13:38:45.354Z,27.70
2023-05-16T13:41:11.971Z,28.15
2023-05-16T13:43:38.590Z,26.85
2023-05-16T13:46:05.401Z,27.26
2023-05-16T13:48:32.463Z,27.91
2023-05-16T13:50:59.052Z,28.16
2023-05-16T13:53:26.212Z,27.84
2023-05-16T13:55:52.870Z,27.45
2023-05-16T13:58:19.688Z,27.49
2023-05-16T14:00:47.687Z,27.57
2023-05-16T14:03:14.579Z,27.20
2023-05-16T14:05:41.242Z,27.10
2023-05-16T14:08:08.198Z,27.35
2023-05-16T14:10:34.749Z,27.19
2023-05-16T14:13:01.514Z,27.08
2023-05-16T14:15:28.190Z,26.95
2023-05-16T14:17:55.236Z,27.05
2023-05-16T14:20:21.883Z,27.30
2023-05-16T14:22:48.519Z,27.29
2023-05-16T14:25:15.361Z,27.24
2023-05-16T14:27:42.034Z,26.79
2023-05-16T14:30:09.445Z,27.01
2023-05-16T14:32:36.431Z,27.12
2023-05-16T14:35:05.302Z,27.35
2023-05-16T14:37:32.096Z,27.18
2023-05-16T14:39:59.645Z,27.68
2023-05-16T14:42:26.551Z,26.82
2023-05-16T14:44:53.227Z,26.81
2023-05-16T14:47:19.977Z,27.17
2023-05-16T14:49:46.702Z,27.17
2023-05-16T14:52:14.442Z,26.71
2023-05-16T14:54:41.138Z,26.54
2023-05-16T14:57:08.105Z,26.22
2023-05-16T14:59:34.780Z,26.50
2023-05-16T15:02:01.753Z,26.67
2023-05-16T15:04:28.885Z,26.15
2023-05-16T15:06:55.859Z,26.62
2023-05-16T15:09:22.614Z,27.69
2023-05-16T15:11:49.280Z,26.82
2023-05-16T15:14:16.175Z,26.39
2023-05-16T15:16:43.285Z,26.72
2023-05-16T15:19:10.028Z,27.13
2023-05-16T15:21:36.879Z,26.77
2023-05-16T15:24:03.561Z,26.69
2023-05-16T15:26:31.022Z,26.52
2023-05-16T15:28:58.359Z,26.89
2023-05-16T15:31:25.505Z,26.18
2023-05-16T15:33:52.330Z,26.04
2023-05-16T15:36:19.072Z,26.49
2023-05-16T15:38:47.512Z,26.59
2023-05-16T15:41:27.118Z,26.76
2023-05-16T15:43:59.256Z,27.12
2023-05-16T15:46:26.417Z,27.32
2023-05-16T15:48:53.574Z,27.23
2023-05-16T15:51:21.053Z,27.55
2023-05-16T15:53:48.280Z,27.19
2023-05-16T15:56:14.988Z,27.85
2023-05-16T15:58:41.926Z,27.66
2023-05-16T16:01:08.680Z,27.12
2023-05-16T16:03:35.653Z,27.24
2023-05-16T16:06:02.597Z,26.59
2023-05-16T16:08:29.360Z,26.60
2023-05-16T16:10:55.989Z,27.13
2023-05-16T16:13:24.147Z,26.89
2023-05-16T16:15:50.915Z,27.14
2023-05-16T16:18:17.626Z,27.53
2023-05-16T16:20:44.310Z,27.50
2023-05-16T16:23:11.409Z,27.30
2023-05-16T16:25:38.083Z,27.01
2023-05-16T16:28:05.580Z,27.04
2023-05-16T16:30:32.207Z,27.07
2023-05-16T16:32:58.788Z,27.28
2023-05-16T16:35:26.503Z,27.69
2023-05-16T16:38:05.714Z,27.41
2023-05-16T16:40:33.217Z,27.04
2023-05-16T16:42:59.930Z,27.12
2023-05-16T16:45:26.963Z,27.39
2023-05-16T16:47:53.759Z,27.51
2023-05-16T16:50:20.601Z,27.67
2023-05-16T16:52:47.683Z,27.96
2023-05-16T16:55:14.947Z,27.55
2023-05-16T16:57:42.495Z,27.72
2023-05-16T17:00:11.358Z,27.83
2023-05-16T17:02:38.295Z,27.30
2023-05-16T17:05:06.465Z,27.23
2023-05-16T17:07:33.266Z,27.25
2023-05-16T17:10:01.036Z,26.88
2023-05-16T17:12:28.725Z,26.69
2023-05-16T17:14:57.086Z,26.47
2023-05-16T17:17:25.117Z,26.83
2023-05-16T17:19:52.191Z,26.78
2023-05-16T17:22:19.148Z,26.59
2023-05-16T17:24:45.792Z,26.90
2023-05-16T17:27:13.425Z,27.04
2023-05-16T17:29:40.005Z,27.09
2023-05-16T17:32:06.731Z,26.98
2023-05-16T17:34:33.523Z,27.07
2023-05-16T17:37:00.283Z,27.06
2023-05-16T17:39:26.933Z,26.80
2023-05-16T17:41:59.180Z,26.42
2023-05-16T17:44:26.023Z,26.71
2023-05-16T17:46:53.609Z,26.95
2023-05-16T17:49:21.468Z,26.88
2023-05-16T17:51:54.129Z,26.98
2023-05-16T17:54:22.267Z,26.85
2023-05-16T17:56:50.751Z,26.86
2023-05-16T17:59:17.694Z,26.49
2023-05-16T18:01:44.360Z,26.49
2023-05-16T18:04:11.640Z,26.74
2023-05-16T18:06:38.823Z,26.34
2023-05-16T18:09:07.317Z,26.41
2023-05-16T18:11:34.771Z,26.18
2023-05-16T18:14:02.007Z,26.03
2023-05-16T18:16:30.574Z,26.43
2023-05-16T18:18:58.133Z,26.18
2023-05-16T18:21:25.263Z,25.77
2023-05-16T18:23:52.058Z,25.48
2023-05-16T18:26:19.321Z,25.92
2023-05-16T18:28:46.521Z,25.85
2023-05-16T18:31:13.249Z,25.67
2023-05-16T18:33:40.065Z,25.95
2023-05-16T18:36:07.056Z,26.10
2023-05-16T18:38:34.006Z,25.85
2023-05-16T18:41:01.294Z,25.89
2023-05-16T18:43:28.029Z,25.80
2023-05-16T18:45:54.574Z,25.90
2023-05-16T18:48:21.402Z,25.44
2023-05-16T18:50:48.042Z,25.54
2023-05-16T18:53:14.668Z,25.57
2023-05-16T18:55:41.169Z,25.58
2023-05-16T18:58:07.905Z,25.32
2023-05-16T19:00:34.470Z,25.62
2023-05-16T19:03:01.228Z,25.54
2023-05-16T19:05:28.408Z,25.82
2023-05-16T19:07:55.385Z,25.63
2023-05-16T19:10:22.062Z,25.99
2023-05-16T19:12:49.333Z,26.52
2023-05-16T19:15:16.115Z,26.60
2023-05-16T19:17:43.077Z,26.41
2023-05-16T19:20:10.863Z,26.25
2023-05-16T19:22:37.682Z,26.16
2023-05-16T19:25:05.441Z,26.33
2023-05-16T19:27:32.206Z,26.33
2023-05-16T19:29:58.827Z,26.26
2023-05-16T19:32:25.683Z,25.90
2023-05-16T19:34:52.603Z,26.13
2023-05-16T19:37:19.353Z,26.35
2023-05-16T19:39:45.942Z,26.20
2023-05-16T19:42:12.569Z,26.21
2023-05-16T19:44:39.087Z,26.16
2023-05-16T19:47:05.922Z,26.19
2023-05-16T19:49:32.525Z,26.30
2023-05-16T19:51:59.243Z,26.46
2023-05-16T19:54:26.179Z,26.59
2023-05-16T19:56:52.875Z,26.34
2023-05-16T19:59:20.469Z,26.41
2023-05-16T20:01:47.109Z,26.43
2023-05-16T20:04:13.862Z,26.27
2023-05-16T20:06:41.132Z,26.23
2023-05-16T20:09:07.847Z,26.32
2023-05-16T20:11:34.568Z,26.42
2023-05-16T20:14:01.128Z,26.40
2023-05-16T20:16:27.855Z,26.19
2023-05-16T20:18:54.521Z,26.01
2023-05-16T20:21:21.177Z,25.81
2023-05-16T20:23:47.770Z,25.72
2023-05-16T20:26:15.098Z,25.63
2023-05-16T20:28:42.013Z,25.67
2023-05-16T20:31:08.734Z,25.65
2023-05-16T20:33:35.594Z,25.58
2023-05-16T20:36:02.273Z,24.89
2023-05-16T20:38:28.894Z,24.90
2023-05-16T20:40:55.728Z,25.26
2023-05-16T20:43:22.609Z,25.13
2023-05-16T20:45:50.003Z,25.07
2023-05-16T20:48:16.822Z,25.10
2023-05-16T20:50:43.530Z,25.22
2023-05-16T20:53:10.120Z,25.40
2023-05-16T20:55:36.720Z,25.39
2023-05-16T20:58:03.373Z,25.51
2023-05-16T21:00:29.967Z,25.59
2023-05-16T21:02:56.546Z,25.32
2023-05-16T21:05:25.662Z,25.32
2023-05-16T21:07:53.237Z,25.29
2023-05-16T21:10:20.166Z,25.37
2023-05-16T21:12:46.789Z,25.35
2023-05-16T21:15:13.391Z,25.18
2023-05-16T21:17:41.332Z,25.10
2023-05-16T21:20:08.602Z,25.02
2023-05-16T21:22:35.493Z,25.12
2023-05-16T21:25:02.126Z,25.18
2023-05-16T21:27:28.694Z,25.21
2023-05-16T21:29:55.310Z,25.10
2023-05-16T21:32:21.930Z,24.98
2023-05-16T21:34:48.939Z,25.09
2023-05-16T21:37:16.757Z,25.23
2023-05-16T21:39:43.536Z,25.35
2023-05-16T21:42:10.237Z,25.24
2023-05-16T21:44:36.876Z,24.98
2023-05-16T21:47:03.723Z,24.78
2023-05-16T21:49:30.738Z,24.62
2023-05-16T21:51:57.370Z,24.50
2023-05-16T21:54:23.942Z,24.53
2023-05-16T21:56:50.467Z,24.69
2023-05-16T21:59:17.178Z,24.69
2023-05-16T22:01:43.678Z,24.77
2023-05-16T22:04:10.586Z,24.63
2023-05-16T22:06:37.318Z,24.69
2023-05-16T22:09:04.021Z,24.49
2023-05-16T22:11:30.601Z,24.47
2023-05-16T22:13:57.299Z,24.72
2023-05-16T22:16:23.842Z,24.97
2023-05-16T22:18:50.678Z,24.87
2023-05-16T22:21:17.372Z,24.80
2023-05-16T22:23:44.116Z,24.91
2023-05-16T22:26:10.768Z,24.94
2023-05-16T22:28:37.392Z,24.97
2023-05-16T22:31:03.935Z,24.82
2023-05-16T22:33:30.726Z,24.57
2023-05-16T22:35:57.385Z,24.53
2023-05-16T22:38:23.938Z,24.80
2023-05-16T22:40:50.540Z,25.12
2023-05-16T22:43:17.114Z,25.05
2023-05-16T22:45:43.828Z,24.98
2023-05-16T22:48:10.591Z,25.11
2023-05-16T22:50:37.170Z,25.27
2023-05-16T22:53:03.723Z,25.14
2023-05-16T22:55:30.626Z,25.27
2023-05-16T22:57:59.684Z,25.27
2023-05-16T23:00:26.266Z,25.11
2023-05-16T23:02:53.000Z,24.88
2023-05-16T23:05:19.742Z,24.72
2023-05-16T23:07:46.452Z,24.65
2023-05-16T23:10:12.985Z,24.77
2023-05-16T23:12:39.656Z,24.65
2023-05-16T23:15:09.832Z,24.30
2023-05-16T23:17:40.072Z,24.32
2023-05-16T23:20:07.502Z,24.63
2023-05-16T23:22:34.129Z,24.38
2023-05-16T23:25:00.785Z,24.42
2023-05-16T23:27:27.371Z,24.54
2023-05-16T23:29:54.014Z,24.67
2023-05-16T23:32:20.772Z,24.48
2023-05-16T23:34:47.412Z,24.56
2023-05-16T23:37:14.452Z,24.45
2023-05-16T23:39:41.244Z,24.49
2023-05-16T23:42:07.960Z,24.47
2023-05-16T23:44:34.618Z,24.62
2023-05-16T23:47:01.160Z,24.80
2023-05-16T23:49:27.780Z,24.50
2023-05-16T23:51:57.946Z,24.32
2023-05-16T23:54:27.719Z,24.25
2023-05-16T23:56:54.265Z,24.30
2023-05-16T23:59:20.935Z,24.16
